sensor_id;sensor_type;location;lat;lon;timestamp;temperature;humidity
10384;DHT22;5238;43.508;4.980;2024-03-02T00:00:49;10.60;91.30
10384;DHT22;5238;43.508;4.980;2024-03-02T00:03:18;10.50;91.30
10384;DHT22;5238;43.508;4.980;2024-03-02T00:05:49;10.50;91.30
10384;DHT22;5238;43.508;4.980;2024-03-02T00:08:22;10.40;91.30
10384;DHT22;5238;43.508;4.980;2024-03-02T00:10:49;10.40;91.30
10384;DHT22;5238;43.508;4.980;2024-03-02T00:13:20;10.40;91.30
10384;DHT22;5238;43.508;4.980;2024-03-02T00:15:51;10.40;91.30
10384;DHT22;5238;43.508;4.980;2024-03-02T00:18:24;10.40;91.30
10384;DHT22;5238;43.508;4.980;2024-03-02T00:20:53;10.30;91.30
10384;DHT22;5238;43.508;4.980;2024-03-02T00:23:21;10.30;91.30
10384;DHT22;5238;43.508;4.980;2024-03-02T00:25:52;10.30;91.30
10384;DHT22;5238;43.508;4.980;2024-03-02T00:28:21;10.30;91.30
10384;DHT22;5238;43.508;4.980;2024-03-02T00:30:58;10.20;91.30
10384;DHT22;5238;43.508;4.980;2024-03-02T00:33:32;10.20;91.30
10384;DHT22;5238;43.508;4.980;2024-03-02T00:35:59;10.20;91.30
10384;DHT22;5238;43.508;4.980;2024-03-02T00:38:27;10.20;91.30
10384;DHT22;5238;43.508;4.980;2024-03-02T00:40:54;10.20;91.30
10384;DHT22;5238;43.508;4.980;2024-03-02T00:43:59;10.20;91.30
10384;DHT22;5238;43.508;4.980;2024-03-02T00:46:29;10.10;91.30
10384;DHT22;5238;43.508;4.980;2024-03-02T00:48:59;10.10;91.30
10384;DHT22;5238;43.508;4.980;2024-03-02T00:51:27;10.10;91.30
10384;DHT22;5238;43.508;4.980;2024-03-02T00:53:58;10.00;91.30
10384;DHT22;5238;43.508;4.980;2024-03-02T00:56:25;10.00;91.30
10384;DHT22;5238;43.508;4.980;2024-03-02T00:58:52;10.00;91.30
10384;DHT22;5238;43.508;4.980;2024-03-02T01:01:19;10.00;91.30
10384;DHT22;5238;43.508;4.980;2024-03-02T01:03:46;10.00;91.30
10384;DHT22;5238;43.508;4.980;2024-03-02T01:06:16;10.00;91.30
10384;DHT22;5238;43.508;4.980;2024-03-02T01:08:44;10.00;91.30
10384;DHT22;5238;43.508;4.980;2024-03-02T01:11:11;10.00;91.30
10384;DHT22;5238;43.508;4.980;2024-03-02T01:13:38;9.90;91.30
10384;DHT22;5238;43.508;4.980;2024-03-02T01:16:05;9.90;91.30
10384;DHT22;5238;43.508;4.980;2024-03-02T01:18:32;9.90;91.30
10384;DHT22;5238;43.508;4.980;2024-03-02T01:20:59;9.90;91.30
10384;DHT22;5238;43.508;4.980;2024-03-02T01:23:28;9.90;91.30
10384;DHT22;5238;43.508;4.980;2024-03-02T01:25:55;9.90;91.30
10384;DHT22;5238;43.508;4.980;2024-03-02T01:28:22;9.90;91.30
10384;DHT22;5238;43.508;4.980;2024-03-02T01:30:49;9.90;91.30
10384;DHT22;5238;43.508;4.980;2024-03-02T01:33:16;9.90;91.30
10384;DHT22;5238;43.508;4.980;2024-03-02T01:35:43;9.80;91.30
10384;DHT22;5238;43.508;4.980;2024-03-02T01:38:10;9.80;91.30
10384;DHT22;5238;43.508;4.980;2024-03-02T01:40:39;9.80;91.30
10384;DHT22;5238;43.508;4.980;2024-03-02T01:43:06;9.80;91.30
10384;DHT22;5238;43.508;4.980;2024-03-02T01:45:34;9.80;91.30
10384;DHT22;5238;43.508;4.980;2024-03-02T01:48:01;9.80;91.30
10384;DHT22;5238;43.508;4.980;2024-03-02T01:50:29;9.80;91.30
10384;DHT22;5238;43.508;4.980;2024-03-02T01:52:58;9.80;91.30
10384;DHT22;5238;43.508;4.980;2024-03-02T01:55:26;9.80;91.30
10384;DHT22;5238;43.508;4.980;2024-03-02T01:57:56;9.80;91.30
10384;DHT22;5238;43.508;4.980;2024-03-02T02:00:23;9.80;91.30
10384;DHT22;5238;43.508;4.980;2024-03-02T02:02:52;9.80;91.30
10384;DHT22;5238;43.508;4.980;2024-03-02T02:05:19;9.80;91.30
10384;DHT22;5238;43.508;4.980;2024-03-02T02:07:46;9.80;91.30
10384;DHT22;5238;43.508;4.980;2024-03-02T02:10:13;9.80;91.30
10384;DHT22;5238;43.508;4.980;2024-03-02T02:12:40;9.80;91.30
10384;DHT22;5238;43.508;4.980;2024-03-02T10:33:00;19.50;91.30
10384;DHT22;5238;43.508;4.980;2024-03-02T10:35:42;19.50;91.30
10384;DHT22;5238;43.508;4.980;2024-03-02T10:38:11;19.40;91.30
10384;DHT22;5238;43.508;4.980;2024-03-02T10:40:38;19.30;91.30
10384;DHT22;5238;43.508;4.980;2024-03-02T10:43:05;19.20;91.30
10384;DHT22;5238;43.508;4.980;2024-03-02T10:45:33;19.10;91.30
10384;DHT22;5238;43.508;4.980;2024-03-02T10:48:02;19.30;91.30
10384;DHT22;5238;43.508;4.980;2024-03-02T10:50:31;19.20;91.30
10384;DHT22;5238;43.508;4.980;2024-03-02T10:52:59;19.20;91.30
10384;DHT22;5238;43.508;4.980;2024-03-02T10:55:26;19.20;91.30
10384;DHT22;5238;43.508;4.980;2024-03-02T10:57:54;19.20;91.30
10384;DHT22;5238;43.508;4.980;2024-03-02T11:00:25;19.00;91.30
10384;DHT22;5238;43.508;4.980;2024-03-02T11:02:57;18.80;91.30
10384;DHT22;5238;43.508;4.980;2024-03-02T11:05:27;18.70;91.30
10384;DHT22;5238;43.508;4.980;2024-03-02T11:08:00;18.60;91.30
10384;DHT22;5238;43.508;4.980;2024-03-02T11:10:34;18.60;91.30
10384;DHT22;5238;43.508;4.980;2024-03-02T11:13:04;18.60;91.30
10384;DHT22;5238;43.508;4.980;2024-03-02T11:15:31;18.70;91.30
10384;DHT22;5238;43.508;4.980;2024-03-02T11:18:02;18.80;91.30
10384;DHT22;5238;43.508;4.980;2024-03-02T11:20:31;19.00;91.30
10384;DHT22;5238;43.508;4.980;2024-03-02T11:23:04;19.10;91.30
10384;DHT22;5238;43.508;4.980;2024-03-02T11:25:31;19.20;91.30
10384;DHT22;5238;43.508;4.980;2024-03-02T11:28:05;19.20;91.30
10384;DHT22;5238;43.508;4.980;2024-03-02T11:30:51;19.20;91.30
10384;DHT22;5238;43.508;4.980;2024-03-02T11:33:25;19.20;91.30
10384;DHT22;5238;43.508;4.980;2024-03-02T11:35:56;19.20;91.30
10384;DHT22;5238;43.508;4.980;2024-03-02T11:38:30;19.10;91.30
10384;DHT22;5238;43.508;4.980;2024-03-02T11:40:59;19.00;91.30
10384;DHT22;5238;43.508;4.980;2024-03-02T11:43:27;18.90;91.30
10384;DHT22;5238;43.508;4.980;2024-03-02T11:45:58;18.80;91.30
10384;DHT22;5238;43.508;4.980;2024-03-02T11:48:25;18.70;91.30
10384;DHT22;5238;43.508;4.980;2024-03-02T11:50:53;18.60;91.30
10384;DHT22;5238;43.508;4.980;2024-03-02T11:53:22;18.60;91.30
10384;DHT22;5238;43.508;4.980;2024-03-02T11:55:50;18.60;91.30
10384;DHT22;5238;43.508;4.980;2024-03-02T11:58:19;18.50;91.30
10384;DHT22;5238;43.508;4.980;2024-03-02T12:00:50;18.60;91.30
10384;DHT22;5238;43.508;4.980;2024-03-02T12:03:18;18.60;91.30
10384;DHT22;5238;43.508;4.980;2024-03-02T12:05:49;18.50;91.30
10384;DHT22;5238;43.508;4.980;2024-03-02T12:08:16;18.50;91.30
10384;DHT22;5238;43.508;4.980;2024-03-02T12:10:43;18.60;91.30
10384;DHT22;5238;43.508;4.980;2024-03-02T12:13:23;18.60;91.30
10384;DHT22;5238;43.508;4.980;2024-03-02T12:15:53;18.60;91.30
10384;DHT22;5238;43.508;4.980;2024-03-02T12:18:20;18.60;91.30
10384;DHT22;5238;43.508;4.980;2024-03-02T12:20:49;18.50;91.30
10384;DHT22;5238;43.508;4.980;2024-03-02T12:23:18;18.50;91.30
10384;DHT22;5238;43.508;4.980;2024-03-02T12:25:45;18.50;91.30
10384;DHT22;5238;43.508;4.980;2024-03-02T12:28:12;18.50;91.30
10384;DHT22;5238;43.508;4.980;2024-03-02T12:30:41;18.50;91.30
10384;DHT22;5238;43.508;4.980;2024-03-02T12:33:08;18.50;91.30
10384;DHT22;5238;43.508;4.980;2024-03-02T12:35:36;18.50;91.30
10384;DHT22;5238;43.508;4.980;2024-03-02T12:38:03;18.40;91.30
10384;DHT22;5238;43.508;4.980;2024-03-02T12:40:30;18.40;91.30
10384;DHT22;5238;43.508;4.980;2024-03-02T12:42:57;18.40;91.30
10384;DHT22;5238;43.508;4.980;2024-03-02T12:45:24;18.30;91.30
10384;DHT22;5238;43.508;4.980;2024-03-02T12:47:53;18.30;91.30
10384;DHT22;5238;43.508;4.980;2024-03-02T12:50:20;18.30;91.30
10384;DHT22;5238;43.508;4.980;2024-03-02T12:52:51;18.20;91.30
10384;DHT22;5238;43.508;4.980;2024-03-02T12:55:20;18.20;91.30
10384;DHT22;5238;43.508;4.980;2024-03-02T12:57:49;18.20;91.30
10384;DHT22;5238;43.508;4.980;2024-03-02T13:00:18;18.20;91.30
10384;DHT22;5238;43.508;4.980;2024-03-02T13:02:46;18.20;91.30
10384;DHT22;5238;43.508;4.980;2024-03-02T13:05:16;18.10;91.30
10384;DHT22;5238;43.508;4.980;2024-03-02T13:07:43;18.10;91.30
10384;DHT22;5238;43.508;4.980;2024-03-02T13:10:10;18.00;91.30
10384;DHT22;5238;43.508;4.980;2024-03-02T13:12:38;18.00;91.30
10384;DHT22;5238;43.508;4.980;2024-03-02T13:15:06;17.90;91.30
10384;DHT22;5238;43.508;4.980;2024-03-02T13:17:34;17.90;91.30
10384;DHT22;5238;43.508;4.980;2024-03-02T13:20:03;17.90;91.30
10384;DHT22;5238;43.508;4.980;2024-03-02T13:22:35;17.90;91.30
10384;DHT22;5238;43.508;4.980;2024-03-02T13:25:02;17.90;91.30
10384;DHT22;5238;43.508;4.980;2024-03-02T13:27:30;17.90;91.30
10384;DHT22;5238;43.508;4.980;2024-03-02T13:29:57;17.80;91.30
10384;DHT22;5238;43.508;4.980;2024-03-02T13:32:24;17.80;91.30
10384;DHT22;5238;43.508;4.980;2024-03-02T13:34:51;17.80;91.30
10384;DHT22;5238;43.508;4.980;2024-03-02T13:37:19;17.70;91.30
10384;DHT22;5238;43.508;4.980;2024-03-02T13:39:48;17.70;91.30
10384;DHT22;5238;43.508;4.980;2024-03-02T13:42:15;17.70;91.30
10384;DHT22;5238;43.508;4.980;2024-03-02T13:44:43;17.60;91.30
10384;DHT22;5238;43.508;4.980;2024-03-02T13:47:11;17.60;91.30
10384;DHT22;5238;43.508;4.980;2024-03-02T13:49:38;17.60;91.30
10384;DHT22;5238;43.508;4.980;2024-03-02T13:52:09;17.60;91.30
10384;DHT22;5238;43.508;4.980;2024-03-02T13:54:38;17.50;91.30
10384;DHT22;5238;43.508;4.980;2024-03-02T13:57:07;17.50;91.30
10384;DHT22;5238;43.508;4.980;2024-03-02T13:59:35;17.50;91.30
10384;DHT22;5238;43.508;4.980;2024-03-02T14:02:02;17.50;91.30
10384;DHT22;5238;43.508;4.980;2024-03-02T14:04:30;17.40;91.30
10384;DHT22;5238;43.508;4.980;2024-03-02T14:06:58;17.40;91.30
10384;DHT22;5238;43.508;4.980;2024-03-02T14:09:25;17.30;91.30
10384;DHT22;5238;43.508;4.980;2024-03-02T14:11:53;17.20;91.30
10384;DHT22;5238;43.508;4.980;2024-03-02T14:14:21;17.20;91.30
10384;DHT22;5238;43.508;4.980;2024-03-02T14:16:48;17.20;91.30
10384;DHT22;5238;43.508;4.980;2024-03-02T14:19:15;17.20;91.30
10384;DHT22;5238;43.508;4.980;2024-03-02T14:21:42;17.10;91.30
10384;DHT22;5238;43.508;4.980;2024-03-02T14:24:09;17.10;91.30
10384;DHT22;5238;43.508;4.980;2024-03-02T14:26:37;17.10;91.30
10384;DHT22;5238;43.508;4.980;2024-03-02T14:29:04;17.00;91.30
10384;DHT22;5238;43.508;4.980;2024-03-02T14:31:32;17.00;91.30
10384;DHT22;5238;43.508;4.980;2024-03-02T14:34:00;16.90;91.30
10384;DHT22;5238;43.508;4.980;2024-03-02T14:36:28;16.80;91.30
10384;DHT22;5238;43.508;4.980;2024-03-02T14:38:55;16.80;91.30
10384;DHT22;5238;43.508;4.980;2024-03-02T14:41:22;16.80;91.30
10384;DHT22;5238;43.508;4.980;2024-03-02T14:43:50;16.70;91.30
10384;DHT22;5238;43.508;4.980;2024-03-02T14:46:17;16.70;91.30
10384;DHT22;5238;43.508;4.980;2024-03-02T14:48:45;16.60;91.30
10384;DHT22;5238;43.508;4.980;2024-03-02T14:51:13;16.60;91.30
10384;DHT22;5238;43.508;4.980;2024-03-02T14:53:40;16.60;91.30
10384;DHT22;5238;43.508;4.980;2024-03-02T14:56:07;16.60;91.30
10384;DHT22;5238;43.508;4.980;2024-03-02T14:58:34;16.50;91.30
10384;DHT22;5238;43.508;4.980;2024-03-02T15:01:03;16.50;91.30
10384;DHT22;5238;43.508;4.980;2024-03-02T15:03:31;16.50;91.30
10384;DHT22;5238;43.508;4.980;2024-03-02T15:05:59;16.40;91.30
10384;DHT22;5238;43.508;4.980;2024-03-02T15:08:26;16.40;91.30
10384;DHT22;5238;43.508;4.980;2024-03-02T15:10:53;16.40;91.30
10384;DHT22;5238;43.508;4.980;2024-03-02T15:13:23;16.40;91.30
10384;DHT22;5238;43.508;4.980;2024-03-02T15:15:51;16.40;91.30
10384;DHT22;5238;43.508;4.980;2024-03-02T15:18:18;16.40;91.30
10384;DHT22;5238;43.508;4.980;2024-03-02T15:20:45;16.40;91.30
10384;DHT22;5238;43.508;4.980;2024-03-02T15:23:13;16.40;91.30
10384;DHT22;5238;43.508;4.980;2024-03-02T15:25:40;16.40;91.30
10384;DHT22;5238;43.508;4.980;2024-03-02T15:28:07;16.40;91.30
10384;DHT22;5238;43.508;4.980;2024-03-02T15:30:34;16.30;91.30
10384;DHT22;5238;43.508;4.980;2024-03-02T15:33:02;16.30;91.30
10384;DHT22;5238;43.508;4.980;2024-03-02T15:35:29;16.30;91.30
10384;DHT22;5238;43.508;4.980;2024-03-02T15:37:55;16.30;91.30
10384;DHT22;5238;43.508;4.980;2024-03-02T15:40:23;16.20;91.30
10384;DHT22;5238;43.508;4.980;2024-03-02T15:42:50;16.20;91.30
10384;DHT22;5238;43.508;4.980;2024-03-02T15:45:16;16.20;91.30
10384;DHT22;5238;43.508;4.980;2024-03-02T15:47:43;16.20;91.30
10384;DHT22;5238;43.508;4.980;2024-03-02T15:50:11;16.20;91.30
10384;DHT22;5238;43.508;4.980;2024-03-02T15:52:38;16.20;91.30
10384;DHT22;5238;43.508;4.980;2024-03-02T15:55:05;16.20;91.30
10384;DHT22;5238;43.508;4.980;2024-03-02T15:57:34;16.10;91.30
10384;DHT22;5238;43.508;4.980;2024-03-02T16:00:03;16.10;91.30
10384;DHT22;5238;43.508;4.980;2024-03-02T16:02:31;16.10;91.30
10384;DHT22;5238;43.508;4.980;2024-03-02T16:04:58;16.10;91.30
10384;DHT22;5238;43.508;4.980;2024-03-02T16:07:24;16.10;91.30
10384;DHT22;5238;43.508;4.980;2024-03-02T16:09:51;16.10;91.30
10384;DHT22;5238;43.508;4.980;2024-03-02T16:12:18;16.10;91.30
10384;DHT22;5238;43.508;4.980;2024-03-02T16:14:47;16.10;91.30
10384;DHT22;5238;43.508;4.980;2024-03-02T16:17:14;16.00;91.30
10384;DHT22;5238;43.508;4.980;2024-03-02T16:19:41;16.00;91.30
10384;DHT22;5238;43.508;4.980;2024-03-02T16:22:08;16.00;91.30
10384;DHT22;5238;43.508;4.980;2024-03-02T16:24:36;15.90;91.30
10384;DHT22;5238;43.508;4.980;2024-03-02T16:27:04;15.90;91.30
10384;DHT22;5238;43.508;4.980;2024-03-02T16:29:31;15.90;91.30
10384;DHT22;5238;43.508;4.980;2024-03-02T16:31:59;15.80;91.30
10384;DHT22;5238;43.508;4.980;2024-03-02T16:34:26;15.80;91.30
10384;DHT22;5238;43.508;4.980;2024-03-02T16:36:53;15.80;91.30
10384;DHT22;5238;43.508;4.980;2024-03-02T16:39:20;15.80;91.30
10384;DHT22;5238;43.508;4.980;2024-03-02T16:41:47;15.80;91.30
10384;DHT22;5238;43.508;4.980;2024-03-02T16:44:14;15.80;91.30
10384;DHT22;5238;43.508;4.980;2024-03-02T16:46:41;15.70;91.30
10384;DHT22;5238;43.508;4.980;2024-03-02T16:49:11;15.70;91.30
10384;DHT22;5238;43.508;4.980;2024-03-02T16:51:39;15.70;91.30
10384;DHT22;5238;43.508;4.980;2024-03-02T16:54:06;15.70;91.30
10384;DHT22;5238;43.508;4.980;2024-03-02T16:56:38;15.60;91.30
10384;DHT22;5238;43.508;4.980;2024-03-02T16:59:05;15.60;91.30
10384;DHT22;5238;43.508;4.980;2024-03-02T17:01:32;15.60;91.30
10384;DHT22;5238;43.508;4.980;2024-03-02T17:03:59;15.60;91.30
10384;DHT22;5238;43.508;4.980;2024-03-02T17:06:28;15.60;91.30
10384;DHT22;5238;43.508;4.980;2024-03-02T17:08:55;15.60;91.30
10384;DHT22;5238;43.508;4.980;2024-03-02T17:11:22;15.50;91.30
10384;DHT22;5238;43.508;4.980;2024-03-02T17:13:49;15.50;91.30
10384;DHT22;5238;43.508;4.980;2024-03-02T17:16:22;15.50;91.30
10384;DHT22;5238;43.508;4.980;2024-03-02T17:18:50;15.50;91.30
10384;DHT22;5238;43.508;4.980;2024-03-02T17:21:17;15.40;91.30
10384;DHT22;5238;43.508;4.980;2024-03-02T17:23:46;15.40;91.30
10384;DHT22;5238;43.508;4.980;2024-03-02T17:26:13;15.40;91.30
10384;DHT22;5238;43.508;4.980;2024-03-02T17:28:40;15.40;91.30
10384;DHT22;5238;43.508;4.980;2024-03-02T17:31:07;15.40;91.30
10384;DHT22;5238;43.508;4.980;2024-03-02T17:33:34;15.40;91.30
10384;DHT22;5238;43.508;4.980;2024-03-02T17:36:01;15.40;91.30
10384;DHT22;5238;43.508;4.980;2024-03-02T17:38:29;15.30;91.30
10384;DHT22;5238;43.508;4.980;2024-03-02T17:40:57;15.30;91.30
10384;DHT22;5238;43.508;4.980;2024-03-02T17:43:24;15.30;91.30
10384;DHT22;5238;43.508;4.980;2024-03-02T17:45:51;15.30;91.30
10384;DHT22;5238;43.508;4.980;2024-03-02T17:48:19;15.30;91.30
10384;DHT22;5238;43.508;4.980;2024-03-02T17:50:47;15.30;91.30
10384;DHT22;5238;43.508;4.980;2024-03-02T17:53:14;15.30;91.30
10384;DHT22;5238;43.508;4.980;2024-03-02T17:55:41;15.30;91.30
10384;DHT22;5238;43.508;4.980;2024-03-02T17:58:10;15.30;91.30
10384;DHT22;5238;43.508;4.980;2024-03-02T18:00:36;15.30;91.30
10384;DHT22;5238;43.508;4.980;2024-03-02T18:03:04;15.30;91.30
10384;DHT22;5238;43.508;4.980;2024-03-02T18:05:31;15.20;91.30
10384;DHT22;5238;43.508;4.980;2024-03-02T18:07:59;15.20;91.30
10384;DHT22;5238;43.508;4.980;2024-03-02T18:10:26;15.20;91.30
10384;DHT22;5238;43.508;4.980;2024-03-02T18:12:54;15.20;91.30
10384;DHT22;5238;43.508;4.980;2024-03-02T18:15:22;15.20;91.30
10384;DHT22;5238;43.508;4.980;2024-03-02T18:17:49;15.20;91.30
10384;DHT22;5238;43.508;4.980;2024-03-02T18:20:16;15.20;91.30
10384;DHT22;5238;43.508;4.980;2024-03-02T18:22:43;15.20;91.30
10384;DHT22;5238;43.508;4.980;2024-03-02T18:25:10;15.20;91.30
10384;DHT22;5238;43.508;4.980;2024-03-02T18:27:37;15.20;91.30
10384;DHT22;5238;43.508;4.980;2024-03-02T18:30:05;15.20;91.30
10384;DHT22;5238;43.508;4.980;2024-03-02T18:32:37;15.20;91.30
10384;DHT22;5238;43.508;4.980;2024-03-02T18:35:05;15.20;91.30
10384;DHT22;5238;43.508;4.980;2024-03-02T18:37:34;15.20;91.30
10384;DHT22;5238;43.508;4.980;2024-03-02T18:40:01;15.20;91.30
10384;DHT22;5238;43.508;4.980;2024-03-02T18:42:28;15.20;91.30
10384;DHT22;5238;43.508;4.980;2024-03-02T18:44:55;15.20;91.30
10384;DHT22;5238;43.508;4.980;2024-03-02T18:47:22;15.20;91.30
10384;DHT22;5238;43.508;4.980;2024-03-02T18:49:51;15.20;91.30
10384;DHT22;5238;43.508;4.980;2024-03-02T18:52:21;15.30;91.30
10384;DHT22;5238;43.508;4.980;2024-03-02T18:54:48;15.30;91.30
10384;DHT22;5238;43.508;4.980;2024-03-02T18:57:14;15.30;91.30
10384;DHT22;5238;43.508;4.980;2024-03-02T18:59:41;15.30;91.30
10384;DHT22;5238;43.508;4.980;2024-03-02T19:02:10;15.30;91.30
10384;DHT22;5238;43.508;4.980;2024-03-02T19:04:37;15.30;91.30
10384;DHT22;5238;43.508;4.980;2024-03-02T19:07:05;15.40;91.30
10384;DHT22;5238;43.508;4.980;2024-03-02T19:09:32;15.40;91.30
10384;DHT22;5238;43.508;4.980;2024-03-02T19:11:59;15.40;91.30
10384;DHT22;5238;43.508;4.980;2024-03-02T19:14:26;15.40;91.30
10384;DHT22;5238;43.508;4.980;2024-03-02T19:16:53;15.40;91.30
10384;DHT22;5238;43.508;4.980;2024-03-02T19:19:20;15.40;91.30
10384;DHT22;5238;43.508;4.980;2024-03-02T19:21:47;15.40;91.30
10384;DHT22;5238;43.508;4.980;2024-03-02T19:24:15;15.40;91.30
10384;DHT22;5238;43.508;4.980;2024-03-02T19:26:42;15.30;91.30
10384;DHT22;5238;43.508;4.980;2024-03-02T19:29:09;15.30;91.30
10384;DHT22;5238;43.508;4.980;2024-03-02T19:31:37;15.30;91.30
10384;DHT22;5238;43.508;4.980;2024-03-02T19:34:04;15.30;91.30
10384;DHT22;5238;43.508;4.980;2024-03-02T19:36:30;15.30;91.30
10384;DHT22;5238;43.508;4.980;2024-03-02T19:38:58;15.30;91.30
10384;DHT22;5238;43.508;4.980;2024-03-02T19:41:26;15.30;91.30
10384;DHT22;5238;43.508;4.980;2024-03-02T19:43:53;15.30;91.30
10384;DHT22;5238;43.508;4.980;2024-03-02T19:46:20;15.30;91.30
10384;DHT22;5238;43.508;4.980;2024-03-02T19:48:48;15.30;91.30
10384;DHT22;5238;43.508;4.980;2024-03-02T19:51:15;15.30;91.30
10384;DHT22;5238;43.508;4.980;2024-03-02T19:53:42;15.30;91.30
10384;DHT22;5238;43.508;4.980;2024-03-02T19:56:14;15.30;91.30
10384;DHT22;5238;43.508;4.980;2024-03-02T19:58:43;15.30;91.30
10384;DHT22;5238;43.508;4.980;2024-03-02T20:01:10;15.30;91.30
10384;DHT22;5238;43.508;4.980;2024-03-02T20:03:37;15.20;91.30
10384;DHT22;5238;43.508;4.980;2024-03-02T20:06:04;15.30;91.30
10384;DHT22;5238;43.508;4.980;2024-03-02T20:08:32;15.30;91.30
10384;DHT22;5238;43.508;4.980;2024-03-02T20:10:59;15.30;91.30
10384;DHT22;5238;43.508;4.980;2024-03-02T20:13:28;15.30;91.30
10384;DHT22;5238;43.508;4.980;2024-03-02T20:15:57;15.30;91.30
10384;DHT22;5238;43.508;4.980;2024-03-02T20:18:24;15.30;91.30
10384;DHT22;5238;43.508;4.980;2024-03-02T20:20:51;15.30;91.30
10384;DHT22;5238;43.508;4.980;2024-03-02T20:23:18;15.30;91.30
10384;DHT22;5238;43.508;4.980;2024-03-02T20:25:45;15.30;91.30
10384;DHT22;5238;43.508;4.980;2024-03-02T20:28:12;15.40;91.30
10384;DHT22;5238;43.508;4.980;2024-03-02T20:30:39;15.40;91.30
10384;DHT22;5238;43.508;4.980;2024-03-02T20:33:07;15.40;91.30
10384;DHT22;5238;43.508;4.980;2024-03-02T20:35:34;15.40;91.30
10384;DHT22;5238;43.508;4.980;2024-03-02T20:38:01;15.40;91.30
10384;DHT22;5238;43.508;4.980;2024-03-02T20:40:29;15.40;91.30
10384;DHT22;5238;43.508;4.980;2024-03-02T20:42:56;15.40;91.30
10384;DHT22;5238;43.508;4.980;2024-03-02T20:45:23;15.40;91.30
10384;DHT22;5238;43.508;4.980;2024-03-02T20:47:50;15.40;91.30
10384;DHT22;5238;43.508;4.980;2024-03-02T20:50:19;15.50;91.30
10384;DHT22;5238;43.508;4.980;2024-03-02T20:52:47;15.50;91.30
10384;DHT22;5238;43.508;4.980;2024-03-02T20:55:14;15.50;91.30
10384;DHT22;5238;43.508;4.980;2024-03-02T20:57:41;15.50;91.30
10384;DHT22;5238;43.508;4.980;2024-03-02T21:00:08;15.50;91.30
10384;DHT22;5238;43.508;4.980;2024-03-02T21:02:36;15.50;91.30
10384;DHT22;5238;43.508;4.980;2024-03-02T21:05:04;15.50;91.30
10384;DHT22;5238;43.508;4.980;2024-03-02T21:07:32;15.50;91.30
10384;DHT22;5238;43.508;4.980;2024-03-02T21:10:00;15.50;91.30
10384;DHT22;5238;43.508;4.980;2024-03-02T21:12:27;15.50;91.30
10384;DHT22;5238;43.508;4.980;2024-03-02T21:14:55;15.50;91.30
10384;DHT22;5238;43.508;4.980;2024-03-02T21:17:22;15.50;91.30
10384;DHT22;5238;43.508;4.980;2024-03-02T21:19:49;15.40;91.30
10384;DHT22;5238;43.508;4.980;2024-03-02T21:22:16;15.40;91.30
10384;DHT22;5238;43.508;4.980;2024-03-02T21:24:44;15.40;91.30
10384;DHT22;5238;43.508;4.980;2024-03-02T21:27:11;15.40;91.30
10384;DHT22;5238;43.508;4.980;2024-03-02T21:29:38;15.40;91.30
10384;DHT22;5238;43.508;4.980;2024-03-02T21:32:06;15.30;91.30
10384;DHT22;5238;43.508;4.980;2024-03-02T21:34:34;15.20;91.30
10384;DHT22;5238;43.508;4.980;2024-03-02T21:37:01;15.10;91.30
10384;DHT22;5238;43.508;4.980;2024-03-02T21:39:28;15.00;91.30
10384;DHT22;5238;43.508;4.980;2024-03-02T21:41:57;14.90;91.30
10384;DHT22;5238;43.508;4.980;2024-03-02T21:44:23;14.80;91.30
10384;DHT22;5238;43.508;4.980;2024-03-02T21:46:50;14.70;91.30
10384;DHT22;5238;43.508;4.980;2024-03-02T21:49:17;14.60;91.30
10384;DHT22;5238;43.508;4.980;2024-03-02T21:51:44;14.60;91.30
10384;DHT22;5238;43.508;4.980;2024-03-02T21:54:11;14.50;91.30
10384;DHT22;5238;43.508;4.980;2024-03-02T21:56:38;14.50;91.30
10384;DHT22;5238;43.508;4.980;2024-03-02T21:59:06;14.50;91.30
10384;DHT22;5238;43.508;4.980;2024-03-02T22:01:33;14.50;91.30
10384;DHT22;5238;43.508;4.980;2024-03-02T22:04:00;14.50;91.30
10384;DHT22;5238;43.508;4.980;2024-03-02T22:06:28;14.50;91.30
10384;DHT22;5238;43.508;4.980;2024-03-02T22:08:55;14.50;91.30
10384;DHT22;5238;43.508;4.980;2024-03-02T22:11:22;14.50;91.30
10384;DHT22;5238;43.508;4.980;2024-03-02T22:13:48;14.60;91.30
10384;DHT22;5238;43.508;4.980;2024-03-02T22:16:17;14.60;91.30
10384;DHT22;5238;43.508;4.980;2024-03-02T22:18:44;14.60;91.30
10384;DHT22;5238;43.508;4.980;2024-03-02T22:21:11;14.60;91.30
10384;DHT22;5238;43.508;4.980;2024-03-02T22:23:38;14.60;91.30
10384;DHT22;5238;43.508;4.980;2024-03-02T22:26:05;14.60;91.30
10384;DHT22;5238;43.508;4.980;2024-03-02T22:28:32;14.60;91.30
10384;DHT22;5238;43.508;4.980;2024-03-02T22:30:59;14.60;91.30
10384;DHT22;5238;43.508;4.980;2024-03-02T22:33:27;14.60;91.30
10384;DHT22;5238;43.508;4.980;2024-03-02T22:35:54;14.70;91.30
10384;DHT22;5238;43.508;4.980;2024-03-02T22:38:21;14.70;91.30
10384;DHT22;5238;43.508;4.980;2024-03-02T22:40:48;14.70;91.30
10384;DHT22;5238;43.508;4.980;2024-03-02T22:43:15;14.70;91.30
10384;DHT22;5238;43.508;4.980;2024-03-02T22:45:42;14.70;91.30
10384;DHT22;5238;43.508;4.980;2024-03-02T22:48:09;14.70;91.30
10384;DHT22;5238;43.508;4.980;2024-03-02T22:50:39;14.70;91.30
10384;DHT22;5238;43.508;4.980;2024-03-02T22:53:05;14.70;91.30
10384;DHT22;5238;43.508;4.980;2024-03-02T22:55:32;14.80;91.30
10384;DHT22;5238;43.508;4.980;2024-03-02T22:57:59;14.80;91.30
10384;DHT22;5238;43.508;4.980;2024-03-02T23:00:26;14.80;91.30
10384;DHT22;5238;43.508;4.980;2024-03-02T23:03:01;14.80;91.30
10384;DHT22;5238;43.508;4.980;2024-03-02T23:05:28;14.80;91.30
10384;DHT22;5238;43.508;4.980;2024-03-02T23:07:57;14.80;91.30
10384;DHT22;5238;43.508;4.980;2024-03-02T23:10:24;14.80;91.30
10384;DHT22;5238;43.508;4.980;2024-03-02T23:12:50;14.80;91.30
10384;DHT22;5238;43.508;4.980;2024-03-02T23:15:17;14.80;91.30
10384;DHT22;5238;43.508;4.980;2024-03-02T23:17:44;14.80;91.30
10384;DHT22;5238;43.508;4.980;2024-03-02T23:20:12;14.90;91.30
10384;DHT22;5238;43.508;4.980;2024-03-02T23:22:39;14.90;91.30
10384;DHT22;5238;43.508;4.980;2024-03-02T23:25:09;14.90;91.30
10384;DHT22;5238;43.508;4.980;2024-03-02T23:27:36;14.90;91.30
10384;DHT22;5238;43.508;4.980;2024-03-02T23:30:04;14.80;91.30
10384;DHT22;5238;43.508;4.980;2024-03-02T23:32:31;14.80;91.30
10384;DHT22;5238;43.508;4.980;2024-03-02T23:34:58;14.80;91.30
10384;DHT22;5238;43.508;4.980;2024-03-02T23:37:26;14.80;91.30
10384;DHT22;5238;43.508;4.980;2024-03-02T23:39:54;14.80;91.30
10384;DHT22;5238;43.508;4.980;2024-03-02T23:42:44;14.80;91.30
10384;DHT22;5238;43.508;4.980;2024-03-02T23:45:10;14.80;91.30
10384;DHT22;5238;43.508;4.980;2024-03-02T23:47:38;14.80;91.30
10384;DHT22;5238;43.508;4.980;2024-03-02T23:50:05;14.70;91.30
10384;DHT22;5238;43.508;4.980;2024-03-02T23:52:33;14.70;91.30
10384;DHT22;5238;43.508;4.980;2024-03-02T23:55:00;14.70;91.30
10384;DHT22;5238;43.508;4.980;2024-03-02T23:57:27;14.70;91.30
10384;DHT22;5238;43.508;4.980;2024-03-02T23:59:55;14.70;91.30
